Time;durP1;ratioP1;P1;durP2;ratioP2;P2;SDS_P1;SDS_P2;PMS_P1;PMS_P2;Temp;Humidity;BMP_temperature;BMP_pressure;BME280_temperature;BME280_humidity;BME280_pressure;Samples;Min_cycle;Max_cycle;Signal;HPM_P1;HPM_P2
2022/09/28 00:01:43;;;;;;;;;;;;;;;;;;5080095;28;19919;-63
2022/09/28 00:04:08;;;;;;;;;;;;;;;;;;5082758;28;19990;-63
2022/09/28 00:06:33;;;;;;;;;;;;;;;;;;5079569;28;20022;-64
2022/09/28 00:09:00;;;;;;;;;;;;;;;;;;5077285;28;19920;-63
2022/09/28 00:11:28;;;;;;;;;;;;;;;;;;5063010;28;20385;-64
2022/09/28 00:13:55;;;;;;;;;;;;;;;;;;5080496;28;19962;-63
2022/09/28 00:16:20;;;;;;;;;;;;;;;;;;5079583;28;19912;-63
2022/09/28 00:18:45;;;;;;;;;;;;;;;;;;5075549;28;19981;-64
2022/09/28 00:21:13;;;;;;;;;;;;;;;;;;5077387;28;19912;-63
2022/09/28 00:24:11;;;;;;;;;;;;;;;;;;5089860;28;19962;-63
2022/09/28 00:26:23;;;;;;;;;;;;;;;;;;5079823;28;20365;-64
2022/09/28 00:28:48;;;;;;;;;;;;;;;;;;5087530;28;19991;-63
2022/09/28 00:31:14;;;;;;;;;;;;;;;;;;5078039;28;19912;-63
2022/09/28 00:33:39;;;;;;;;;;;;;;;;;;5072861;28;19956;-63
2022/09/28 00:36:04;;;;;;;;;;;;;;;;;;5067562;28;19916;-63
2022/09/28 00:38:29;;;;;;;;;;;;;;;;;;5078565;28;19913;-64
2022/09/28 00:40:54;;;;;;;;;;;;;;;;;;5079031;28;19916;-63
2022/09/28 00:43:20;;;;;;;;;;;;;;;;;;5085032;28;20072;-63
2022/09/28 00:45:45;;;;;;;;;;;;;;;;;;5067251;28;20301;-64
2022/09/28 00:48:10;;;;;;;;;;;;;;;;;;5082247;28;20286;-63
2022/09/28 00:50:35;;;;;;;;;;;;;;;;;;5086576;28;19912;-63
2022/09/28 00:53:00;;;;;;;;;;;;;;;;;;5091767;28;19915;-62
2022/09/28 00:55:25;;;;;;;;;;;;;;;;;;5084607;28;19912;-63
2022/09/28 00:57:51;;;;;;;;;;;;;;;;;;5076143;28;19959;-63
2022/09/28 01:00:16;;;;;;;;;;;;;;;;;;5087415;28;20007;-63
2022/09/28 01:02:41;;;;;;;;;;;;;;;;;;5079297;28;19912;-62
2022/09/28 01:05:06;;;;;;;;;;;;;;;;;;5070059;28;19916;-62
2022/09/28 01:07:31;;;;;;;;;;;;;;;;;;5094066;28;19908;-62
2022/09/28 01:09:57;;;;;;;;;;;;;;;;;;5089605;28;19924;-62
2022/09/28 01:12:22;;;;;;;;;;;;;;;;;;5064822;28;20277;-62
2022/09/28 01:14:47;;;;;;;;;;;;;;;;;;5077235;28;19926;-62
2022/09/28 01:17:12;;;;;;;;;;;;;;;;;;5065868;28;19963;-62
2022/09/28 01:19:37;;;;;;;;;;;;;;;;;;5087398;28;19927;-62
2022/09/28 01:22:03;;;;;;;;;;;;;;;;;;5078134;28;19960;-63
2022/09/28 01:24:28;;;;;;;;;;;;;;;;;;5062277;28;19918;-63
2022/09/28 01:26:54;;;;;;;;;;;;;;;;;;5082383;28;19962;-63
2022/09/28 01:29:19;;;;;;;;;;;;;;;;;;5084191;28;19912;-63
2022/09/28 01:31:44;;;;;;;;;;;;;;;;;;5084386;28;19919;-62
2022/09/28 01:34:10;;;;;;;;;;;;;;;;;;5076860;28;19920;-63
2022/09/28 01:36:35;;;;;;;;;;;;;;;;;;5081982;28;20352;-63
2022/09/28 01:39:00;;;;;;;;;;;;;;;;;;5080891;28;19916;-62
2022/09/28 01:41:25;;;;;;;;;;;;;;;;;;5079713;28;19919;-63
2022/09/28 01:43:51;;;;;;;;;;;;;;;;;;5073667;28;20291;-62
2022/09/28 01:46:16;;;;;;;;;;;;;;;;;;5072815;28;19912;-63
2022/09/28 01:48:41;;;;;;;;;;;;;;;;;;5085759;28;19912;-63
2022/09/28 01:51:06;;;;;;;;;;;;;;;;;;5070203;28;20109;-63
2022/09/28 01:53:31;;;;;;;;;;;;;;;;;;5075372;28;19952;-63
2022/09/28 01:55:56;;;;;;;;;;;;;;;;;;5073236;28;19912;-62
2022/09/28 01:58:21;;;;;;;;;;;;;;;;;;5088020;28;19912;-62
2022/09/28 02:00:47;;;;;;;;;;;;;;;;;;5075083;28;20171;-63
2022/09/28 02:03:12;;;;;;;;;;;;;;;;;;5083190;28;20006;-63
2022/09/28 02:05:37;;;;;;;;;;;;;;;;;;5081198;28;19970;-62
2022/09/28 02:08:02;;;;;;;;;;;;;;;;;;5073573;28;19913;-62
2022/09/28 02:10:27;;;;;;;;;;;;;;;;;;5084264;28;19916;-61
2022/09/28 02:12:52;;;;;;;;;;;;;;;;;;5085457;28;20284;-63
2022/09/28 02:15:18;;;;;;;;;;;;;;;;;;5091488;28;19959;-62
2022/09/28 02:17:43;;;;;;;;;;;;;;;;;;5084622;28;19913;-63
2022/09/28 02:20:08;;;;;;;;;;;;;;;;;;5065136;28;19920;-62
2022/09/28 02:22:33;;;;;;;;;;;;;;;;;;5083320;28;19912;-63
2022/09/28 02:24:58;;;;;;;;;;;;;;;;;;5083054;28;20041;-63
2022/09/28 02:27:23;;;;;;;;;;;;;;;;;;5085670;28;19966;-63
2022/09/28 02:29:48;;;;;;;;;;;;;;;;;;5081899;28;19912;-62
2022/09/28 02:32:13;;;;;;;;;;;;;;;;;;5076318;28;19912;-63
2022/09/28 02:34:39;;;;;;;;;;;;;;;;;;5060938;28;20044;-63
2022/09/28 02:37:04;;;;;;;;;;;;;;;;;;5071337;28;19920;-63
2022/09/28 02:39:29;;;;;;;;;;;;;;;;;;5085449;28;19953;-62
2022/09/28 02:41:54;;;;;;;;;;;;;;;;;;5079920;28;19958;-63
2022/09/28 02:44:19;;;;;;;;;;;;;;;;;;5072925;28;19919;-62
2022/09/28 02:46:44;;;;;;;;;;;;;;;;;;5069219;28;19919;-63
2022/09/28 02:49:09;;;;;;;;;;;;;;;;;;5079848;28;19913;-63
2022/09/28 02:51:35;;;;;;;;;;;;;;;;;;5078344;28;19917;-63
2022/09/28 02:54:00;;;;;;;;;;;;;;;;;;5078695;28;19912;-63
2022/09/28 02:56:25;;;;;;;;;;;;;;;;;;5063974;28;20296;-63
2022/09/28 02:58:50;;;;;;;;;;;;;;;;;;5090291;28;20288;-63
2022/09/28 03:01:15;;;;;;;;;;;;;;;;;;5083724;28;19933;-63
2022/09/28 03:03:40;;;;;;;;;;;;;;;;;;5086518;28;19921;-62
2022/09/28 03:06:05;;;;;;;;;;;;;;;;;;5082103;28;20376;-62
2022/09/28 03:08:31;;;;;;;;;;;;;;;;;;5080653;28;19959;-62
2022/09/28 03:10:56;;;;;;;;;;;;;;;;;;5066139;28;19912;-63
2022/09/28 03:13:21;;;;;;;;;;;;;;;;;;5081743;28;19979;-63
2022/09/28 03:15:46;;;;;;;;;;;;;;;;;;5080178;28;19912;-63
2022/09/28 03:18:11;;;;;;;;;;;;;;;;;;5077671;28;19972;-63
2022/09/28 03:20:36;;;;;;;;;;;;;;;;;;5079249;28;19947;-63
2022/09/28 03:23:02;;;;;;;;;;;;;;;;;;5087523;28;20356;-63
2022/09/28 03:25:27;;;;;;;;;;;;;;;;;;5090361;28;20368;-63
2022/09/28 03:27:52;;;;;;;;;;;;;;;;;;5076417;28;19927;-64
2022/09/28 03:30:17;;;;;;;;;;;;;;;;;;5073423;28;20395;-64
2022/09/28 03:32:42;;;;;;;;;;;;;;;;;;5082310;28;19919;-63
2022/09/28 03:35:08;;;;;;;;;;;;;;;;;;5087228;28;19918;-64
2022/09/28 03:37:33;;;;;;;;;;;;;;;;;;5063592;28;19912;-64
2022/09/28 03:39:58;;;;;;;;;;;;;;;;;;5084763;28;20376;-64
2022/09/28 03:42:23;;;;;;;;;;;;;;;;;;5068808;28;20407;-64
2022/09/28 03:44:48;;;;;;;;;;;;;;;;;;5082163;28;20309;-64
2022/09/28 03:47:14;;;;;;;;;;;;;;;;;;5085384;28;19958;-63
2022/09/28 03:49:39;;;;;;;;;;;;;;;;;;5079943;28;19916;-63
2022/09/28 03:52:05;;;;;;;;;;;;;;;;;;5087425;28;20011;-64
2022/09/28 03:54:30;;;;;;;;;;;;;;;;;;5078742;28;19970;-64
2022/09/28 03:56:55;;;;;;;;;;;;;;;;;;5085540;28;19912;-64
2022/09/28 03:59:20;;;;;;;;;;;;;;;;;;5080899;28;19922;-63
2022/09/28 04:01:45;;;;;;;;;;;;;;;;;;5076017;28;20388;-63
2022/09/28 04:04:10;;;;;;;;;;;;;;;;;;5079539;28;20002;-62
2022/09/28 04:06:36;;;;;;;;;;;;;;;;;;5064621;28;19918;-63
2022/09/28 04:09:01;;;;;;;;;;;;;;;;;;5086054;28;19912;-63
2022/09/28 04:11:26;;;;;;;;;;;;;;;;;;5078941;28;19935;-63
2022/09/28 04:13:51;;;;;;;;;;;;;;;;;;5085322;28;19920;-63
2022/09/28 04:16:17;;;;;;;;;;;;;;;;;;5077229;28;20009;-63
2022/09/28 04:18:42;;;;;;;;;;;;;;;;;;5065767;28;19943;-63
2022/09/28 04:21:07;;;;;;;;;;;;;;;;;;5050300;28;20422;-63
2022/09/28 04:23:33;;;;;;;;;;;;;;;;;;5059328;28;19924;-63
2022/09/28 04:25:58;;;;;;;;;;;;;;;;;;5062512;28;19921;-62
2022/09/28 04:31:07;;;;;;;;;;;;;;;;;;5071811;28;19919;-63
2022/09/28 04:33:32;;;;;;;;;;;;;;;;;;5065689;28;19916;-64
2022/09/28 04:35:57;;;;;;;;;;;;;;;;;;5044332;28;19967;-63
2022/09/28 04:38:23;;;;;;;;;;;;;;;;;;5073067;28;19922;-63
2022/09/28 04:40:48;;;;;;;;;;;;;;;;;;5066362;28;20385;-64
2022/09/28 04:43:13;;;;;;;;;;;;;;;;;;5070322;28;20289;-63
2022/09/28 04:45:38;;;;;;;;;;;;;;;;;;5063558;28;19920;-63
2022/09/28 04:48:03;;;;;;;;;;;;;;;;;;5056427;28;19920;-68
2022/09/28 04:50:29;;;;;;;;;;;;;;;;;;5063712;28;19923;-69
2022/09/28 04:52:54;;;;;;;;;;;;;;;;;;5043084;28;20028;-69
2022/09/28 04:55:19;;;;;;;;;;;;;;;;;;5056846;28;19928;-69
2022/09/28 04:57:44;;;;;;;;;;;;;;;;;;5042934;28;19960;-69
2022/09/28 05:00:09;;;;;;;;;;;;;;;;;;5068227;28;19944;-66
2022/09/28 05:02:35;;;;;;;;;;;;;;;;;;5063439;28;19913;-69
2022/09/28 05:05:00;;;;;;;;;;;;;;;;;;5068625;28;19913;-68
2022/09/28 05:07:25;;;;;;;;;;;;;;;;;;5055708;28;19999;-69
2022/09/28 05:09:50;;;;;;;;;;;;;;;;;;5049478;28;19935;-69
2022/09/28 05:12:16;;;;;;;;;;;;;;;;;;5062297;28;19959;-69
2022/09/28 05:14:41;;;;;;;;;;;;;;;;;;5044670;28;19918;-69
2022/09/28 05:17:06;;;;;;;;;;;;;;;;;;5063740;28;19960;-70
2022/09/28 05:19:33;;;;;;;;;;;;;;;;;;5080965;28;20018;-69
2022/09/28 05:22:02;;;;;;;;;;;;;;;;;;5077942;28;19913;-70
2022/09/28 05:24:27;;;;;;;;;;;;;;;;;;5071007;28;20032;-70
2022/09/28 05:26:53;;;;;;;;;;;;;;;;;;5084569;28;20138;-69
2022/09/28 05:29:18;;;;;;;;;;;;;;;;;;5083033;28;20319;-69
2022/09/28 05:31:43;;;;;;;;;;;;;;;;;;5076598;28;21406;-69
2022/09/28 05:34:08;;;;;;;;;;;;;;;;;;5064039;28;19912;-69
2022/09/28 05:36:34;;;;;;;;;;;;;;;;;;5065887;28;20380;-70
2022/09/28 05:39:00;;;;;;;;;;;;;;;;;;5090443;28;19984;-66
2022/09/28 05:41:25;;;;;;;;;;;;;;;;;;5091709;28;20470;-69
2022/09/28 05:43:51;;;;;;;;;;;;;;;;;;5078452;28;19974;-68
2022/09/28 05:46:17;;;;;;;;;;;;;;;;;;5079495;28;19913;-68
2022/09/28 05:48:42;;;;;;;;;;;;;;;;;;5081880;28;19918;-68
2022/09/28 05:51:08;;;;;;;;;;;;;;;;;;5081352;28;19924;-69
2022/09/28 05:53:34;;;;;;;;;;;;;;;;;;5087112;28;20400;-69
2022/09/28 05:55:59;;;;;;;;;;;;;;;;;;5089396;28;19920;-69
2022/09/28 05:58:24;;;;;;;;;;;;;;;;;;5078773;28;19920;-69
2022/09/28 06:00:49;;;;;;;;;;;;;;;;;;5083478;28;19916;-69
2022/09/28 06:03:14;;;;;;;;;;;;;;;;;;5083167;28;20007;-69
2022/09/28 06:05:39;;;;;;;;;;;;;;;;;;5082655;28;20333;-70
2022/09/28 06:08:05;;;;;;;;;;;;;;;;;;5083568;28;20356;-70
2022/09/28 06:10:30;;;;;;;;;;;;;;;;;;5081170;28;20288;-70
2022/09/28 06:12:55;;;;;;;;;;;;;;;;;;5085663;28;19912;-69
2022/09/28 06:15:20;;;;;;;;;;;;;;;;;;5083665;28;19923;-69
2022/09/28 06:17:45;;;;;;;;;;;;;;;;;;5078881;28;19927;-70
2022/09/28 06:20:10;;;;;;;;;;;;;;;;;;5082430;28;19916;-68
2022/09/28 06:22:35;;;;;;;;;;;;;;;;;;5081485;28;19912;-70
2022/09/28 06:25:01;;;;;;;;;;;;;;;;;;5069182;28;20356;-69
2022/09/28 06:27:26;;;;;;;;;;;;;;;;;;5064962;28;19966;-70
2022/09/28 06:29:51;;;;;;;;;;;;;;;;;;5082469;28;19912;-69
2022/09/28 06:32:16;;;;;;;;;;;;;;;;;;5087381;28;19912;-70
2022/09/28 06:34:41;;;;;;;;;;;;;;;;;;5088088;28;19956;-70
2022/09/28 06:37:07;;;;;;;;;;;;;;;;;;5067080;28;19917;-70
2022/09/28 06:39:32;;;;;;;;;;;;;;;;;;5064747;28;20397;-69
2022/09/28 06:42:02;;;;;;;;;;;;;;;;;;5084519;28;20356;-70
2022/09/28 06:44:27;;;;;;;;;;;;;;;;;;5081667;28;19920;-67
2022/09/28 06:46:54;;;;;;;;;;;;;;;;;;5076391;28;19916;-69
2022/09/28 06:49:19;;;;;;;;;;;;;;;;;;5076123;28;19948;-67
2022/09/28 06:51:45;;;;;;;;;;;;;;;;;;5081704;28;19993;-70
2022/09/28 06:54:10;;;;;;;;;;;;;;;;;;5082019;28;19923;-69
2022/09/28 06:56:35;;;;;;;;;;;;;;;;;;5079203;28;19951;-69
2022/09/28 06:59:01;;;;;;;;;;;;;;;;;;5076602;28;19916;-69
2022/09/28 07:01:26;;;;;;;;;;;;;;;;;;5076874;28;20394;-69
2022/09/28 07:03:51;;;;;;;;;;;;;;;;;;5084040;28;20372;-69
2022/09/28 07:06:17;;;;;;;;;;;;;;;;;;5062374;28;20358;-69
2022/09/28 07:08:42;;;;;;;;;;;;;;;;;;5081135;28;20666;-69
2022/09/28 07:11:07;;;;;;;;;;;;;;;;;;5076364;28;19955;-70
2022/09/28 07:13:33;;;;;;;;;;;;;;;;;;5079537;28;19916;-69
2022/09/28 07:16:01;;;;;;;;;;;;;;;;;;5082096;28;19915;-70
2022/09/28 07:18:27;;;;;;;;;;;;;;;;;;5076114;28;19924;-67
2022/09/28 07:20:53;;;;;;;;;;;;;;;;;;5061875;28;19924;-67
2022/09/28 07:23:20;;;;;;;;;;;;;;;;;;5070358;28;20455;-70
2022/09/28 07:25:49;;;;;;;;;;;;;;;;;;5078631;28;19919;-69
2022/09/28 07:28:14;;;;;;;;;;;;;;;;;;5084342;28;19950;-69
2022/09/28 07:30:39;;;;;;;;;;;;;;;;;;5068717;28;19959;-70
2022/09/28 07:33:05;;;;;;;;;;;;;;;;;;5063474;28;19919;-69
2022/09/28 07:35:30;;;;;;;;;;;;;;;;;;5082640;28;19920;-70
2022/09/28 07:37:56;;;;;;;;;;;;;;;;;;5087219;28;19918;-69
2022/09/28 07:43:06;;;;;;;;;;;;;;;;;;5076921;28;20017;-69
2022/09/28 07:45:34;;;;;;;;;;;;;;;;;;5083846;28;20387;-70
2022/09/28 07:47:59;;;;;;;;;;;;;;;;;;5079736;28;19920;-66
2022/09/28 07:50:24;;;;;;;;;;;;;;;;;;5079094;28;19919;-70
2022/09/28 07:52:49;;;;;;;;;;;;;;;;;;5074421;28;19931;-68
2022/09/28 07:55:15;;;;;;;;;;;;;;;;;;5087920;28;19960;-71
2022/09/28 07:57:40;;;;;;;;;;;;;;;;;;5081857;28;20360;-68
2022/09/28 08:00:07;;;;;;;;;;;;;;;;;;5088809;28;20391;-69
2022/09/28 08:02:34;;;;;;;;;;;;;;;;;;5083901;28;19981;-69
2022/09/28 08:04:59;;;;;;;;;;;;;;;;;;5084953;28;20118;-67
2022/09/28 08:07:24;;;;;;;;;;;;;;;;;;5077885;28;20361;-68
2022/09/28 08:09:49;;;;;;;;;;;;;;;;;;5086203;28;20379;-66
2022/09/28 08:12:17;;;;;;;;;;;;;;;;;;5082768;28;19908;-68
2022/09/28 08:14:42;;;;;;;;;;;;;;;;;;5086863;28;19912;-69
2022/09/28 08:17:07;;;;;;;;;;;;;;;;;;5078455;28;20404;-69
2022/09/28 08:22:17;;;;;;;;;;;;;;;;;;5064943;28;19935;-68
2022/09/28 08:24:43;;;;;;;;;;;;;;;;;;5042474;28;20376;-66
2022/09/28 08:27:09;;;;;;;;;;;;;;;;;;5063529;28;20003;-69
2022/09/28 08:29:34;;;;;;;;;;;;;;;;;;5062917;28;19925;-67
2022/09/28 08:31:59;;;;;;;;;;;;;;;;;;5060125;28;19916;-69
2022/09/28 08:34:26;;;;;;;;;;;;;;;;;;5059141;28;19920;-69
2022/09/28 08:36:51;;;;;;;;;;;;;;;;;;5063113;28;19991;-68
2022/09/28 08:39:16;;;;;;;;;;;;;;;;;;5061842;28;19996;-70
2022/09/28 08:41:41;;;;;;;;;;;;;;;;;;5055641;28;19920;-70
2022/09/28 08:44:06;;;;;;;;;;;;;;;;;;5052074;28;19927;-70
2022/09/28 08:46:31;;;;;;;;;;;;;;;;;;5060379;28;20257;-69
2022/09/28 08:48:56;;;;;;;;;;;;;;;;;;5056105;28;19937;-70
2022/09/28 08:51:22;;;;;;;;;;;;;;;;;;5056674;28;19917;-70
2022/09/28 08:53:47;;;;;;;;;;;;;;;;;;5049195;28;19957;-69
2022/09/28 08:56:12;;;;;;;;;;;;;;;;;;5061516;28;20002;-70
2022/09/28 08:58:37;;;;;;;;;;;;;;;;;;5067013;28;19936;-70
2022/09/28 09:01:03;;;;;;;;;;;;;;;;;;5063218;28;19924;-67
2022/09/28 09:03:28;;;;;;;;;;;;;;;;;;5062819;28;19921;-70
2022/09/28 09:05:54;;;;;;;;;;;;;;;;;;5059934;28;20303;-70
2022/09/28 09:08:19;;;;;;;;;;;;;;;;;;5068268;28;19919;-71
2022/09/28 09:10:45;;;;;;;;;;;;;;;;;;5070945;28;19917;-69
2022/09/28 09:13:11;;;;;;;;;;;;;;;;;;5052864;28;19912;-72
2022/09/28 09:15:37;;;;;;;;;;;;;;;;;;5061246;28;20007;-71
2022/09/28 09:18:02;;;;;;;;;;;;;;;;;;5063822;28;19924;-71
2022/09/28 09:20:27;;;;;;;;;;;;;;;;;;5080706;28;19916;-70
2022/09/28 09:22:53;;;;;;;;;;;;;;;;;;5074543;28;19955;-71
2022/09/28 09:25:18;;;;;;;;;;;;;;;;;;5068404;28;19957;-71
2022/09/28 09:27:43;;;;;;;;;;;;;;;;;;5083177;28;19916;-70
2022/09/28 09:30:09;;;;;;;;;;;;;;;;;;5095244;28;19912;-71
2022/09/28 09:32:34;;;;;;;;;;;;;;;;;;5084594;28;20419;-70
2022/09/28 09:35:00;;;;;;;;;;;;;;;;;;5064163;28;19928;-68
2022/09/28 09:37:25;;;;;;;;;;;;;;;;;;5058734;28;19912;-70
2022/09/28 09:39:50;;;;;;;;;;;;;;;;;;5056404;28;20437;-69
2022/09/28 09:42:15;;;;;;;;;;;;;;;;;;5070054;28;20353;-70
2022/09/28 09:44:41;;;;;;;;;;;;;;;;;;5094261;28;20392;-70
2022/09/28 09:47:06;;;;;;;;;;;;;;;;;;5091677;28;19908;-70
2022/09/28 09:49:32;;;;;;;;;;;;;;;;;;5076364;28;20424;-69
2022/09/28 09:51:57;;;;;;;;;;;;;;;;;;5082196;28;20387;-70
2022/09/28 09:54:22;;;;;;;;;;;;;;;;;;5077677;28;19912;-70
2022/09/28 09:56:47;;;;;;;;;;;;;;;;;;5089157;28;19919;-71
2022/09/28 09:59:12;;;;;;;;;;;;;;;;;;5071956;28;19924;-68
2022/09/28 10:01:40;;;;;;;;;;;;;;;;;;5072851;28;19946;-69
2022/09/28 10:04:05;;;;;;;;;;;;;;;;;;5084965;28;19913;-68
2022/09/28 10:06:30;;;;;;;;;;;;;;;;;;5089878;28;20078;-69
2022/09/28 10:08:55;;;;;;;;;;;;;;;;;;5067487;28;19948;-70
2022/09/28 10:11:20;;;;;;;;;;;;;;;;;;5090903;28;19908;-70
2022/09/28 10:13:48;;;;;;;;;;;;;;;;;;5075708;28;19912;-71
2022/09/28 10:16:13;;;;;;;;;;;;;;;;;;5079002;28;19916;-70
2022/09/28 10:18:38;;;;;;;;;;;;;;;;;;5076296;28;20023;-70
2022/09/28 10:21:03;;;;;;;;;;;;;;;;;;5079682;28;19921;-70
2022/09/28 10:23:29;;;;;;;;;;;;;;;;;;5067184;28;19919;-71
2022/09/28 10:25:54;;;;;;;;;;;;;;;;;;5079524;28;20288;-66
2022/09/28 10:28:19;;;;;;;;;;;;;;;;;;5086588;28;19951;-69
2022/09/28 10:30:44;;;;;;;;;;;;;;;;;;5080261;28;19922;-69
2022/09/28 10:33:09;;;;;;;;;;;;;;;;;;5088528;28;20345;-70
2022/09/28 10:35:34;;;;;;;;;;;;;;;;;;5069335;28;19916;-68
2022/09/28 10:38:03;;;;;;;;;;;;;;;;;;5081348;28;19919;-69
2022/09/28 10:40:29;;;;;;;;;;;;;;;;;;5081289;28;19969;-68
2022/09/28 10:42:54;;;;;;;;;;;;;;;;;;5080511;28;19920;-70
2022/09/28 10:45:19;;;;;;;;;;;;;;;;;;5084424;28;20442;-70
2022/09/28 10:47:44;;;;;;;;;;;;;;;;;;5078310;28;19916;-70
2022/09/28 10:50:09;;;;;;;;;;;;;;;;;;5080010;28;19913;-69
2022/09/28 10:52:35;;;;;;;;;;;;;;;;;;5083810;28;20360;-69
2022/09/28 10:55:00;;;;;;;;;;;;;;;;;;5084201;28;20442;-70
2022/09/28 10:57:25;;;;;;;;;;;;;;;;;;5081186;28;19912;-70
2022/09/28 10:59:50;;;;;;;;;;;;;;;;;;5083553;28;20010;-69
2022/09/28 11:02:15;;;;;;;;;;;;;;;;;;5078792;28;19920;-70
2022/09/28 11:04:40;;;;;;;;;;;;;;;;;;5079727;28;20056;-71
2022/09/28 11:07:06;;;;;;;;;;;;;;;;;;5087801;28;19912;-71
2022/09/28 11:09:31;;;;;;;;;;;;;;;;;;5080557;28;19916;-71
2022/09/28 11:11:56;;;;;;;;;;;;;;;;;;5078625;28;19926;-70
2022/09/28 11:14:21;;;;;;;;;;;;;;;;;;5073052;28;19919;-67
2022/09/28 11:16:46;;;;;;;;;;;;;;;;;;5073426;28;20360;-71
2022/09/28 11:19:11;;;;;;;;;;;;;;;;;;5073807;28;20422;-68
2022/09/28 11:21:37;;;;;;;;;;;;;;;;;;5074350;28;19978;-70
2022/09/28 11:24:04;;;;;;;;;;;;;;;;;;5077998;28;19916;-69
2022/09/28 11:26:29;;;;;;;;;;;;;;;;;;5079705;28;19912;-71
2022/09/28 11:28:55;;;;;;;;;;;;;;;;;;5071396;28;19913;-70
2022/09/28 11:31:20;;;;;;;;;;;;;;;;;;5086851;28;20280;-69
2022/09/28 11:33:45;;;;;;;;;;;;;;;;;;5080810;28;19919;-70
2022/09/28 11:36:11;;;;;;;;;;;;;;;;;;5065667;28;19916;-70
2022/09/28 11:38:36;;;;;;;;;;;;;;;;;;5069996;28;19912;-70
2022/09/28 11:41:01;;;;;;;;;;;;;;;;;;5074826;28;20174;-70
2022/09/28 11:43:26;;;;;;;;;;;;;;;;;;5078834;28;19927;-69
2022/09/28 11:45:51;;;;;;;;;;;;;;;;;;5079455;28;20327;-63
2022/09/28 11:48:16;;;;;;;;;;;;;;;;;;5071299;28;20392;-64
2022/09/28 11:50:42;;;;;;;;;;;;;;;;;;5074780;28;19950;-64
2022/09/28 11:53:07;;;;;;;;;;;;;;;;;;5079783;28;19908;-64
2022/09/28 11:55:33;;;;;;;;;;;;;;;;;;5056807;28;20257;-64
2022/09/28 11:57:58;;;;;;;;;;;;;;;;;;5057162;28;19948;-64
2022/09/28 12:00:23;;;;;;;;;;;;;;;;;;5087794;28;20003;-63
2022/09/28 12:02:48;;;;;;;;;;;;;;;;;;5061690;28;19908;-64
2022/09/28 12:05:13;;;;;;;;;;;;;;;;;;5085520;28;19924;-64
2022/09/28 12:07:38;;;;;;;;;;;;;;;;;;5080653;28;20033;-64
2022/09/28 12:10:03;;;;;;;;;;;;;;;;;;5086683;28;19916;-64
2022/09/28 12:12:31;;;;;;;;;;;;;;;;;;5085059;28;19912;-64
2022/09/28 12:14:56;;;;;;;;;;;;;;;;;;5074891;28;19924;-64
2022/09/28 12:17:21;;;;;;;;;;;;;;;;;;5085955;28;20125;-64
2022/09/28 12:19:46;;;;;;;;;;;;;;;;;;5082525;28;19975;-64
2022/09/28 12:22:11;;;;;;;;;;;;;;;;;;5072145;28;19952;-64
2022/09/28 12:24:36;;;;;;;;;;;;;;;;;;5089110;28;19958;-64
2022/09/28 12:27:02;;;;;;;;;;;;;;;;;;5077345;28;19919;-64
2022/09/28 12:29:27;;;;;;;;;;;;;;;;;;5073771;28;19913;-64
2022/09/28 12:31:52;;;;;;;;;;;;;;;;;;5086872;28;19908;-64
2022/09/28 12:34:17;;;;;;;;;;;;;;;;;;5084570;28;19912;-65
2022/09/28 12:36:42;;;;;;;;;;;;;;;;;;5060587;28;19941;-63
2022/09/28 12:39:07;;;;;;;;;;;;;;;;;;5078591;28;19955;-64
2022/09/28 12:41:32;;;;;;;;;;;;;;;;;;5093378;28;20392;-62
2022/09/28 12:43:58;;;;;;;;;;;;;;;;;;5087756;28;19954;-64
2022/09/28 12:46:23;;;;;;;;;;;;;;;;;;5084751;28;19961;-64
2022/09/28 12:48:48;;;;;;;;;;;;;;;;;;5087704;28;19992;-64
2022/09/28 12:51:13;;;;;;;;;;;;;;;;;;5093630;28;19914;-64
2022/09/28 12:53:38;;;;;;;;;;;;;;;;;;5088425;28;19951;-64
2022/09/28 12:56:05;;;;;;;;;;;;;;;;;;5091441;28;19908;-64
2022/09/28 12:58:30;;;;;;;;;;;;;;;;;;5095557;28;19908;-65
2022/09/28 13:00:55;;;;;;;;;;;;;;;;;;5087119;28;19917;-64
2022/09/28 13:03:20;;;;;;;;;;;;;;;;;;5088779;28;19962;-64
2022/09/28 13:05:45;;;;;;;;;;;;;;;;;;5083911;28;19959;-64
2022/09/28 13:08:10;;;;;;;;;;;;;;;;;;5076927;28;19913;-64
2022/09/28 13:10:36;;;;;;;;;;;;;;;;;;5093597;28;19912;-64
2022/09/28 13:13:01;;;;;;;;;;;;;;;;;;5094415;28;19969;-64
2022/09/28 13:15:26;;;;;;;;;;;;;;;;;;5092846;28;19935;-63
2022/09/28 13:17:51;;;;;;;;;;;;;;;;;;5065933;28;19985;-62
2022/09/28 13:20:16;;;;;;;;;;;;;;;;;;5092272;28;20233;-63
2022/09/28 13:22:42;;;;;;;;;;;;;;;;;;5093398;28;19923;-63
2022/09/28 13:25:07;;;;;;;;;;;;;;;;;;5094036;28;19908;-69
2022/09/28 13:27:32;;;;;;;;;;;;;;;;;;5063490;28;19916;-63
2022/09/28 13:29:57;;;;;;;;;;;;;;;;;;5077119;28;19909;-64
2022/09/28 13:32:24;;;;;;;;;;;;;;;;;;5077417;28;19983;-64
2022/09/28 13:34:49;;;;;;;;;;;;;;;;;;5074559;28;19914;-65
2022/09/28 13:37:24;;;;;;;;;;;;;;;;;;5066121;28;19912;-64
2022/09/28 13:39:51;;;;;;;;;;;;;;;;;;5092614;28;19923;-65
2022/09/28 13:42:16;;;;;;;;;;;;;;;;;;5069949;28;20295;-64
2022/09/28 13:44:41;;;;;;;;;;;;;;;;;;5086519;28;19916;-64
2022/09/28 13:47:07;;;;;;;;;;;;;;;;;;5074488;28;19913;-66
2022/09/28 13:49:32;;;;;;;;;;;;;;;;;;5080109;28;20407;-66
2022/09/28 13:51:57;;;;;;;;;;;;;;;;;;5058073;28;20278;-66
2022/09/28 13:54:22;;;;;;;;;;;;;;;;;;5085890;28;20372;-66
2022/09/28 13:56:48;;;;;;;;;;;;;;;;;;5086689;28;19912;-65
2022/09/28 13:59:13;;;;;;;;;;;;;;;;;;5081697;28;19920;-65
2022/09/28 14:01:38;;;;;;;;;;;;;;;;;;5081178;28;20364;-65
2022/09/28 14:04:03;;;;;;;;;;;;;;;;;;5076979;28;19917;-66
2022/09/28 14:06:29;;;;;;;;;;;;;;;;;;5087179;28;19990;-65
2022/09/28 14:08:54;;;;;;;;;;;;;;;;;;5093276;28;19909;-66
2022/09/28 14:11:23;;;;;;;;;;;;;;;;;;5089570;28;19943;-66
2022/09/28 14:13:48;;;;;;;;;;;;;;;;;;5084553;28;19919;-66
2022/09/28 14:16:13;;;;;;;;;;;;;;;;;;5092896;28;19916;-66
2022/09/28 14:18:39;;;;;;;;;;;;;;;;;;5079815;28;19970;-66
2022/09/28 14:21:04;;;;;;;;;;;;;;;;;;5072641;28;19927;-65
2022/09/28 14:23:29;;;;;;;;;;;;;;;;;;5085599;28;19923;-66
2022/09/28 14:25:54;;;;;;;;;;;;;;;;;;5086922;28;19998;-65
2022/09/28 14:28:22;;;;;;;;;;;;;;;;;;5085128;28;19912;-66
2022/09/28 14:30:47;;;;;;;;;;;;;;;;;;5082294;28;19919;-65
2022/09/28 14:33:12;;;;;;;;;;;;;;;;;;5072852;28;20002;-64
2022/09/28 14:35:37;;;;;;;;;;;;;;;;;;5083112;28;19994;-65
2022/09/28 14:43:30;;;;;;;;;;;;;;;;;;5091221;28;20383;-69
2022/09/28 14:45:55;;;;;;;;;;;;;;;;;;5078722;28;19917;-65
2022/09/28 14:48:20;;;;;;;;;;;;;;;;;;5076038;28;19927;-65
2022/09/28 14:50:46;;;;;;;;;;;;;;;;;;5065293;28;19919;-65
2022/09/28 14:53:12;;;;;;;;;;;;;;;;;;5086813;28;19920;-63
2022/09/28 14:55:37;;;;;;;;;;;;;;;;;;5080596;28;19985;-65
2022/09/28 14:58:03;;;;;;;;;;;;;;;;;;5078692;28;19916;-65
2022/09/28 15:00:30;;;;;;;;;;;;;;;;;;5090170;28;19923;-66
2022/09/28 15:02:55;;;;;;;;;;;;;;;;;;5092559;28;19908;-66
2022/09/28 15:05:20;;;;;;;;;;;;;;;;;;5068674;28;19912;-66
2022/09/28 15:07:46;;;;;;;;;;;;;;;;;;5084552;28;19912;-65
2022/09/28 15:10:11;;;;;;;;;;;;;;;;;;5069173;28;19921;-64
2022/09/28 15:12:37;;;;;;;;;;;;;;;;;;5071422;28;19908;-66
2022/09/28 15:15:02;;;;;;;;;;;;;;;;;;5076565;28;19912;-65
2022/09/28 15:17:27;;;;;;;;;;;;;;;;;;5060555;28;19919;-66
2022/09/28 15:19:52;;;;;;;;;;;;;;;;;;5087425;28;20304;-66
2022/09/28 15:22:18;;;;;;;;;;;;;;;;;;5086208;28;19908;-65
2022/09/28 15:24:44;;;;;;;;;;;;;;;;;;5073833;28;20400;-65
2022/09/28 15:27:09;;;;;;;;;;;;;;;;;;5083654;28;19912;-67
2022/09/28 15:29:34;;;;;;;;;;;;;;;;;;5078463;28;20381;-65
2022/09/28 15:31:59;;;;;;;;;;;;;;;;;;5081877;28;19913;-67
2022/09/28 15:37:10;;;;;;;;;;;;;;;;;;5073986;28;19919;-66
2022/09/28 15:39:35;;;;;;;;;;;;;;;;;;5072306;28;19999;-66
2022/09/28 15:42:01;;;;;;;;;;;;;;;;;;5075954;28;20038;-67
2022/09/28 15:44:28;;;;;;;;;;;;;;;;;;5075078;28;19913;-67
2022/09/28 15:46:55;;;;;;;;;;;;;;;;;;5082625;28;20388;-66
2022/09/28 15:49:20;;;;;;;;;;;;;;;;;;5073818;28;20357;-67
2022/09/28 15:51:45;;;;;;;;;;;;;;;;;;5075326;28;19913;-66
2022/09/28 15:54:10;;;;;;;;;;;;;;;;;;5069464;28;19919;-67
2022/09/28 15:56:35;;;;;;;;;;;;;;;;;;5088177;28;19959;-67
2022/09/28 15:59:00;;;;;;;;;;;;;;;;;;5071054;28;19919;-65
2022/09/28 16:01:26;;;;;;;;;;;;;;;;;;5068537;28;19917;-66
2022/09/28 16:03:51;;;;;;;;;;;;;;;;;;5065230;28;19915;-66
2022/09/28 16:06:16;;;;;;;;;;;;;;;;;;5072491;28;20348;-66
2022/09/28 16:08:42;;;;;;;;;;;;;;;;;;5090856;28;19927;-66
2022/09/28 16:11:07;;;;;;;;;;;;;;;;;;5069707;28;19961;-66
2022/09/28 16:13:33;;;;;;;;;;;;;;;;;;5072380;28;19908;-66
2022/09/28 16:15:58;;;;;;;;;;;;;;;;;;5063962;28;20025;-65
2022/09/28 16:18:24;;;;;;;;;;;;;;;;;;5079763;28;20300;-66
2022/09/28 16:20:49;;;;;;;;;;;;;;;;;;5071331;28;19916;-66
2022/09/28 16:23:14;;;;;;;;;;;;;;;;;;5067868;28;20485;-65
2022/09/28 16:25:39;;;;;;;;;;;;;;;;;;5089408;28;19997;-66
2022/09/28 16:28:05;;;;;;;;;;;;;;;;;;5074769;28;19912;-65
2022/09/28 16:30:31;;;;;;;;;;;;;;;;;;5072772;28;19912;-66
2022/09/28 16:32:56;;;;;;;;;;;;;;;;;;5094102;28;20003;-66
2022/09/28 16:35:21;;;;;;;;;;;;;;;;;;5070632;28;20007;-67
2022/09/28 16:37:47;;;;;;;;;;;;;;;;;;5076972;28;19922;-66
2022/09/28 16:40:12;;;;;;;;;;;;;;;;;;5069006;28;19951;-66
2022/09/28 16:42:37;;;;;;;;;;;;;;;;;;5087997;28;20356;-65
2022/09/28 16:45:04;;;;;;;;;;;;;;;;;;5075352;28;19912;-67
2022/09/28 16:47:32;;;;;;;;;;;;;;;;;;5077594;28;19951;-66
2022/09/28 16:49:57;;;;;;;;;;;;;;;;;;5079442;28;19909;-66